Flight Track Log - Related Links

Times and Time Zones

All times are in EDT time to prevent confusion due to time zone crossing. See the XOJ552 flight status page for this flight to view local times or setup timezone preferences in your user account.

Time Position Orientation Groundspeed Altitude Reporting Facility
EDT Latitude Longitude Course Direction KTS MPH feet Rate Location/Type
Sat 11:24:18 AM 37.7333 -122.2500 302° West 184 212 900  Level Northern Cal TRACON
Sat 11:25:18 AM 37.7667 -122.3167 302° West 240 276 3,300 2,721 Climbing Northern Cal TRACON
Sat 11:27:10 AM 37.8581 -122.2478 31° Northeast 285 328 8,700 2,775 Climbing Oakland Center
Sat 11:28:11 AM 37.8758 -122.1500 77° East 286 329 11,300 2,585 Climbing Oakland Center
Sat 11:29:13 AM 37.8958 -122.0433 77° East 308 354 14,000 2,390 Climbing Oakland Center
Sat 11:30:14 AM 37.9158 -121.9303 77° East 327 376 16,200 2,164 Climbing Oakland Center
Sat 11:31:15 AM 37.9372 -121.8097 77° East 348 400 18,400 2,244 Climbing Oakland Center
Sat 11:32:17 AM 37.9628 -121.6558 78° East 372 428 20,800 1,951 Climbing Oakland Center
Sat 11:33:18 AM 37.9864 -121.5197 78° East 393 452 22,400 1,623 Climbing Oakland Center
Sat 11:34:19 AM 38.0133 -121.3675 77° East 422 486 24,100 1,610 Climbing Oakland Center
Sat 11:35:21 AM 38.0392 -121.2181 78° East 435 501 25,700 1,610 Climbing Oakland Center
Sat 11:36:22 AM 38.0642 -121.0664 78° East 442 509 27,400 1,574 Climbing Oakland Center
Sat 11:37:23 AM 38.0961 -120.9142 75° East 447 514 28,900 1,463 Climbing Oakland Center
Sat 11:38:25 AM 38.1336 -120.7619 73° East 455 524 30,400 1,317 Climbing Oakland Center
Sat 11:39:26 AM 38.1706 -120.6072 73° East 460 529 31,600 1,180 Climbing Oakland Center
Sat 11:40:27 AM 38.2081 -120.4486 73° East 469 540 32,800 1,231 Climbing Oakland Center
Sat 11:42:41 AM 38.2933 -120.0753 74° East 478 550 35,600 1,272 Climbing Salt Lake Center
Sat 11:43:31 AM 38.3386 -119.9381 67° East 477 549 36,700 1,232 Climbing Oakland Center
Sat 11:44:33 AM 38.3886 -119.7842 67° East 473 544 37,900 1,122 Climbing Oakland Center
Sat 11:45:34 AM 38.4353 -119.6431 67° East 471 542 39,000 1,171 Climbing Oakland Center
Sat 11:46:36 AM 38.4950 -119.4631 67° East 461 531 40,300 976 Climbing Oakland Center
Sat 11:47:37 AM 38.5436 -119.3153 67° East 455 524 41,000 341 Climbing Oakland Center
Sat 11:48:39 AM 38.5914 -119.1639 68° East 460 529 41,000  Level Oakland Center
Sat 11:49:40 AM 38.6422 -119.0081 67° East 475 547 41,000  Level Oakland Center
Sat 11:50:41 AM 38.6911 -118.8503 68° East 479 551 41,000  Level Oakland Center
Sat 11:51:43 AM 38.7406 -118.6961 68° East 473 544 41,000  Level Oakland Center
Sat 11:52:44 AM 38.7886 -118.5422 68° East 470 541 41,000  Level Oakland Center
Sat 11:53:46 AM 38.8461 -118.3586 68° East 467 537 41,000  Level Oakland Center
Sat 11:54:47 AM 38.8944 -118.2033 68° East 471 542 41,000  Level Oakland Center
Sat 11:55:49 AM 38.9425 -118.0481 68° East 471 542 41,000  Level Oakland Center
Sat 11:56:50 AM 38.9900 -117.8925 69° East 472 543 41,000  Level Oakland Center
Sat 11:57:51 AM 39.0389 -117.7358 68° East 474 545 41,000  Level Oakland Center
Sat 11:58:53 AM 39.0858 -117.5797 69° East 471 542 41,000  Level Oakland Center
Sat 11:59:54 AM 39.1336 -117.4222 69° East 473 544 41,000  Level Oakland Center
Sat 12:00:56 PM 39.1850 -117.2506 69° East 471 542 41,000  Level Oakland Center
Sat 12:01:57 PM 39.2303 -117.0967 69° East 478 550 41,000  Level Oakland Center
Sat 12:02:59 PM 39.2828 -116.9208 69° East 472 543 41,000  Level Oakland Center
Sat 12:04:00 PM 39.3283 -116.7689 69° East 474 545 41,000  Level Oakland Center
Sat 12:05:01 PM 39.3797 -116.5914 69° East 474 545 41,000  Level Oakland Center
Sat 12:06:03 PM 39.4239 -116.4383 69° East 474 545 41,000  Level Oakland Center
Sat 12:07:04 PM 39.4681 -116.2844 70° East 476 548 41,000  Level Oakland Center
Sat 12:08:06 PM 39.5192 -116.1061 70° East 475 547 41,000  Level Oakland Center
Sat 12:09:34 PM 39.5861 -115.8756 69° East 475 547 41,000  Level Salt Lake Center
Sat 12:10:36 PM 39.6378 -115.6961 69° East 476 548 41,000  Level Salt Lake Center
Sat 12:11:38 PM 39.6808 -115.5439 70° East 473 544 41,000  Level Salt Lake Center
Sat 12:12:40 PM 39.7242 -115.3897 70° East 475 547 41,000  Level Salt Lake Center
Sat 12:13:42 PM 39.7750 -115.2106 70° East 474 545 41,000  Level Salt Lake Center
Sat 12:14:44 PM 39.8175 -115.0575 70° East 472 543 41,000  Level Salt Lake Center
Sat 12:15:46 PM 39.8667 -114.8797 70° East 468 539 41,000  Level Salt Lake Center
Sat 12:16:48 PM 39.9097 -114.7222 70° East 468 539 41,000  Level Salt Lake Center
Sat 12:17:50 PM 39.9533 -114.5631 70° East 466 536 41,000  Level Salt Lake Center
Sat 12:18:52 PM 39.9947 -114.4039 71° East 465 535 41,000  Level Salt Lake Center
Sat 12:19:54 PM 40.0464 -114.2125 71° East 465 535 41,000  Level Salt Lake Center
Sat 12:20:56 PM 40.0894 -114.0544 70° East 463 533 41,000  Level Salt Lake Center
Sat 12:21:58 PM 40.1308 -113.8964 71° East 462 532 41,000  Level Salt Lake Center
Sat 12:23:00 PM 40.1711 -113.7381 72° East 460 529 41,000  Level Salt Lake Center
Sat 12:24:03 PM 40.2131 -113.5778 71° East 465 535 41,000  Level Salt Lake Center
Sat 12:25:05 PM 40.2553 -113.4178 71° East 467 537 41,000  Level Salt Lake Center
Sat 12:26:07 PM 40.3047 -113.2244 71° East 468 539 41,000  Level Salt Lake Center
Sat 12:27:09 PM 40.3467 -113.0625 71° East 470 541 41,000  Level Salt Lake Center
Sat 12:28:11 PM 40.3889 -112.8997 71° East 472 543 41,000  Level Salt Lake Center
Sat 12:29:13 PM 40.4294 -112.7372 72° East 469 540 41,000  Level Salt Lake Center
Sat 12:30:15 PM 40.4703 -112.5744 72° East 470 541 41,000  Level Salt Lake Center
Sat 12:31:17 PM 40.5103 -112.4108 72° East 474 545 41,000  Level Salt Lake Center
Sat 12:32:19 PM 40.5583 -112.2156 72° East 469 540 41,000  Level Salt Lake Center
Sat 12:33:21 PM 40.5978 -112.0506 72° East 480 552 41,000  Level Salt Lake Center
Sat 12:34:23 PM 40.6353 -111.8867 73° East 477 549 41,000  Level Salt Lake Center
Sat 12:35:25 PM 40.6775 -111.7239 71° East 477 549 41,000  Level Salt Lake Center
Sat 12:36:27 PM 40.7147 -111.5631 73° East 462 532 41,000  Level Salt Lake Center
Sat 12:37:29 PM 40.7619 -111.3675 72° East 470 541 41,000  Level Salt Lake Center
Sat 12:38:31 PM 40.8008 -111.2067 72° East 466 536 41,000  Level Salt Lake Center
Sat 12:39:33 PM 40.8389 -111.0433 73° East 467 537 41,000  Level Salt Lake Center
Sat 12:40:35 PM 40.8767 -110.8792 73° East 468 539 41,000  Level Salt Lake Center
Sat 12:41:37 PM 40.9142 -110.7142 73° East 471 542 41,000  Level Salt Lake Center
Sat 12:42:39 PM 40.9561 -110.5303 73° East 473 544 41,000  Level Salt Lake Center
Sat 12:43:41 PM 40.9989 -110.3436 73° East 475 547 41,000  Level Salt Lake Center
Sat 12:44:43 PM 41.0350 -110.1828 73° East 476 548 41,000  Level Salt Lake Center
Sat 12:45:45 PM 41.0767 -109.9958 73° East 475 547 41,000 48 Level Salt Lake Center
Sat 12:46:47 PM 41.1125 -109.8342 74° East 477 549 41,100 339 Climbing Salt Lake Center
Sat 12:47:49 PM 41.1544 -109.6458 73° East 478 550 41,700 484 Climbing Salt Lake Center
Sat 12:48:51 PM 41.1889 -109.4864 74° East 473 544 42,100 484 Climbing Salt Lake Center
Sat 12:49:53 PM 41.2283 -109.3019 74° East 468 539 42,700 532 Climbing Salt Lake Center
Sat 12:50:55 PM 41.2614 -109.1453 74° East 466 536 43,200 484 Climbing Salt Lake Center
Sat 12:51:57 PM 41.3006 -108.9661 74° East 461 531 43,700 484 Climbing Salt Lake Center
Sat 12:52:59 PM 41.3331 -108.8150 74° East 453 521 44,200 532 Climbing Salt Lake Center
Sat 12:54:01 PM 41.3703 -108.6414 74° East 440 506 44,800 387 Climbing Salt Lake Center
Sat 12:55:03 PM 41.4014 -108.4936 74° East 436 502 45,000 97 Climbing Salt Lake Center
Sat 12:56:05 PM 41.4372 -108.3178 75° East 441 507 45,000  Level Salt Lake Center
Sat 12:57:07 PM 41.4683 -108.1658 75° East 444 511 45,000  Level Salt Lake Center
Sat 12:58:05 PM 41.5000 -108.0103 75° East 449 517 45,000  Level Denver Center
Sat 12:59:07 PM 41.5367 -107.8278 75° East 456 525 45,000  Level Denver Center
Sat 01:00:09 PM 41.5689 -107.6703 75° East 459 528 45,000  Level Denver Center
Sat 01:01:11 PM 41.6053 -107.4856 75° East 461 531 45,000  Level Denver Center
Sat 01:02:13 PM 41.6364 -107.3267 75° East 464 534 45,000  Level Denver Center
Sat 01:03:15 PM 41.6725 -107.1394 75° East 466 536 45,000  Level Denver Center
Sat 01:04:17 PM 41.7031 -106.9783 76° East 467 537 45,000  Level Denver Center
Sat 01:05:19 PM 41.7406 -106.7919 75° East 465 535 45,000  Level Denver Center
Sat 01:06:21 PM 41.7703 -106.6292 76° East 470 541 45,000  Level Denver Center
Sat 01:07:23 PM 41.8028 -106.4453 77° East 471 542 45,000  Level Denver Center
Sat 01:08:25 PM 41.8361 -106.2839 74° East 470 541 45,000  Level Denver Center
Sat 01:09:27 PM 41.8706 -106.0917 76° East 473 544 45,000  Level Denver Center
Sat 01:10:29 PM 41.9011 -105.9308 76° East 464 534 45,000  Level Denver Center
Sat 01:11:31 PM 41.9358 -105.7433 76° East 463 533 45,000  Level Denver Center
Sat 01:12:33 PM 41.9633 -105.5811 77° East 465 535 45,000  Level Denver Center
Sat 01:13:35 PM 41.9975 -105.3917 76° East 466 536 45,000  Level Denver Center
Sat 01:14:38 PM 42.0258 -105.2278 77° East 470 541 45,000  Level Denver Center
Sat 01:15:40 PM 42.0586 -105.0372 77° East 471 542 45,000  Level Denver Center
Sat 01:16:42 PM 42.0861 -104.8736 77° East 470 541 45,000  Level Denver Center
Sat 01:17:44 PM 42.1189 -104.6853 77° East 465 535 45,000  Level Denver Center
Sat 01:18:46 PM 42.1461 -104.5256 77° East 461 531 45,000  Level Denver Center
Sat 01:19:48 PM 42.1778 -104.3375 77° East 464 534 45,000  Level Denver Center
Sat 01:20:50 PM 42.2047 -104.1756 77° East 464 534 45,000  Level Denver Center
Sat 01:21:52 PM 42.2353 -103.9864 78° East 465 535 45,000  Level Denver Center
Sat 01:22:54 PM 42.2614 -103.8242 78° East 465 535 45,000  Level Denver Center
Sat 01:23:56 PM 42.2922 -103.6350 78° East 463 533 45,000  Level Denver Center
Sat 01:24:58 PM 42.3178 -103.4728 78° East 463 533 45,000  Level Denver Center
Sat 01:26:00 PM 42.3486 -103.2833 78° East 464 534 45,000  Level Denver Center
Sat 01:27:02 PM 42.3733 -103.1200 78° East 464 534 45,000  Level Denver Center
Sat 01:28:04 PM 42.3994 -102.9561 78° East 465 535 45,000  Level Denver Center
Sat 01:29:07 PM 42.4311 -102.7611 78° East 475 547 45,000  Level Denver Center
Sat 01:30:09 PM 42.4564 -102.5942 78° East 474 545 45,000  Level Denver Center
Sat 01:31:11 PM 42.4853 -102.3989 79° East 474 545 45,000  Level Denver Center
Sat 01:32:12 PM 42.5064 -102.2583 78° East 475 547 45,000  Level Denver Center
Sat 01:33:15 PM 42.5392 -102.0325 79° East 477 549 45,000  Level Denver Center
Sat 01:34:17 PM 42.5625 -101.8600 80° East 485 558 45,000  Level Denver Center
Sat 01:35:19 PM 42.5911 -101.6600 79° East 474 545 45,000  Level Denver Center
Sat 01:36:21 PM 42.6156 -101.4906 79° East 477 549 45,000  Level Denver Center
Sat 01:37:23 PM 42.6422 -101.2936 80° East 475 547 45,000  Level Denver Center
Sat 01:38:25 PM 42.6661 -101.1272 79° East 470 541 45,000  Level Denver Center
Sat 01:39:39 PM 42.6892 -100.9642 79° East 461 531 45,000  Level Denver Center
Sat 01:40:42 PM 42.7192 -100.7414 80° East 466 536 45,000  Level Denver Center
Sat 01:41:41 PM 42.7439 -100.5517 80° East 470 541 45,000  Level Minneapolis Center
Sat 01:42:46 PM 42.7656 -100.3750 80° East 475 547 45,000  Level Denver Center
Sat 01:43:48 PM 42.7878 -100.2044 80° East 469 540 45,000  Level Denver Center
Sat 01:44:48 PM 42.8111 -100.0292 80° East 466 536 45,000  Level Minneapolis Center
Sat 01:45:50 PM 42.8322 -99.8592 80° East 465 535 45,000  Level Minneapolis Center
Sat 01:46:52 PM 42.8592 -99.6475 80° East 470 541 45,000  Level Minneapolis Center
Sat 01:47:54 PM 42.8811 -99.4681 80° East 470 541 45,000  Level Minneapolis Center
Sat 01:48:56 PM 42.9008 -99.2922 81° East 468 539 45,000  Level Minneapolis Center
Sat 01:49:58 PM 42.9228 -99.1161 80° East 470 541 45,000  Level Minneapolis Center
Sat 01:51:00 PM 42.9422 -98.9511 81° East 468 539 45,000  Level Minneapolis Center
Sat 01:52:02 PM 42.9611 -98.7781 81° East 464 534 45,000  Level Minneapolis Center
Sat 01:53:04 PM 42.9856 -98.5728 81° East 460 529 45,000  Level Minneapolis Center
Sat 01:54:06 PM 43.0064 -98.3997 81° East 463 533 45,000  Level Minneapolis Center
Sat 01:55:08 PM 43.0258 -98.2217 81° East 473 544 45,000  Level Minneapolis Center
Sat 01:56:10 PM 43.0442 -98.0458 82° East 471 542 45,000  Level Minneapolis Center
Sat 01:57:12 PM 43.0636 -97.8692 81° East 472 543 45,000  Level Minneapolis Center
Sat 01:58:15 PM 43.0850 -97.6589 82° East 468 539 45,000  Level Minneapolis Center
Sat 01:59:17 PM 43.1042 -97.4853 81° East 464 534 45,000  Level Minneapolis Center
Sat 02:00:19 PM 43.1214 -97.3086 82° East 469 540 45,000  Level Minneapolis Center
Sat 02:01:21 PM 43.1403 -97.1317 82° East 471 542 45,000  Level Minneapolis Center
Sat 02:02:23 PM 43.1572 -96.9569 82° East 468 539 45,000  Level Minneapolis Center
Sat 02:03:25 PM 43.1742 -96.7822 82° East 465 535 45,000  Level Minneapolis Center
Sat 02:04:27 PM 43.1942 -96.5700 83° East 469 540 45,000  Level Minneapolis Center
Sat 02:05:29 PM 43.2111 -96.3950 82° East 467 537 45,000  Level Minneapolis Center
Sat 02:06:31 PM 43.2264 -96.2206 83° East 467 537 45,000  Level Minneapolis Center
Sat 02:07:33 PM 43.2433 -96.0461 82° East 466 536 45,000  Level Minneapolis Center
Sat 02:08:35 PM 43.2589 -95.8697 83° East 469 540 45,000  Level Minneapolis Center
Sat 02:09:38 PM 43.2769 -95.6592 83° East 467 537 45,000  Level Minneapolis Center
Sat 02:10:40 PM 43.2928 -95.4839 83° East 467 537 45,000  Level Minneapolis Center
Sat 02:11:42 PM 43.3072 -95.3078 84° East 468 539 45,000  Level Minneapolis Center
Sat 02:12:44 PM 43.3214 -95.1342 84° East 464 534 45,000  Level Minneapolis Center
Sat 02:13:46 PM 43.3361 -94.9575 83° East 467 537 45,000  Level Minneapolis Center
Sat 02:14:48 PM 43.3517 -94.7478 84° East 464 534 45,000  Level Minneapolis Center
Sat 02:15:50 PM 43.3664 -94.5739 83° East 463 533 45,000  Level Minneapolis Center
Sat 02:16:52 PM 43.3800 -94.3972 84° East 466 536 45,000  Level Minneapolis Center
Sat 02:17:54 PM 43.3922 -94.2261 84° East 467 537 45,000  Level Minneapolis Center
Sat 02:18:56 PM 43.4036 -94.0497 85° East 467 537 45,000  Level Minneapolis Center
Sat 02:19:58 PM 43.4189 -93.8375 84° East 469 540 45,000  Level Minneapolis Center
Sat 02:21:00 PM 43.4325 -93.6603 84° East 469 540 45,000  Level Minneapolis Center
Sat 02:22:03 PM 43.4433 -93.4811 85° East 472 543 45,000  Level Minneapolis Center
Sat 02:23:05 PM 43.4558 -93.3039 84° East 471 542 45,000  Level Minneapolis Center
Sat 02:24:07 PM 43.4675 -93.1244 85° East 473 544 45,000  Level Minneapolis Center
Sat 02:25:09 PM 43.4819 -92.9083 85° East 475 547 45,000  Level Minneapolis Center
Sat 02:26:11 PM 43.4936 -92.7297 85° East 473 544 45,000  Level Minneapolis Center
Sat 02:27:13 PM 43.5047 -92.5497 85° East 475 547 45,000  Level Minneapolis Center
Sat 02:28:15 PM 43.5136 -92.3706 86° East 473 544 45,000  Level Minneapolis Center
Sat 02:29:17 PM 43.5250 -92.1908 85° East 472 543 45,000  Level Minneapolis Center
Sat 02:30:19 PM 43.5358 -92.0114 85° East 472 543 45,000  Level Minneapolis Center
Sat 02:31:21 PM 43.5481 -91.7906 86° East 478 550 45,000  Level Minneapolis Center
Sat 02:32:23 PM 43.5572 -91.6108 86° East 474 545 45,000  Level Minneapolis Center
Sat 02:33:26 PM 43.5667 -91.4314 86° East 472 543 45,000  Level Minneapolis Center
Sat 02:35:04 PM 43.5794 -91.1781 86° East 473 544 45,000  Level Minneapolis Center
Sat 02:36:07 PM 43.5894 -90.9611 86° East 475 547 45,000  Level Minneapolis Center
Sat 02:37:09 PM 43.5981 -90.7428 87° East 477 549 45,000  Level Minneapolis Center
Sat 02:38:11 PM 43.6061 -90.5614 86° East 478 550 45,000  Level Minneapolis Center
Sat 02:39:13 PM 43.6142 -90.3825 86° East 474 545 45,000  Level Minneapolis Center
Sat 02:40:15 PM 43.6219 -90.1964 87° East 476 548 45,000  Level Minneapolis Center
Sat 02:41:17 PM 43.6264 -89.9847 88° East 472 543 45,000  Level Minneapolis Center
Sat 02:42:19 PM 43.6361 -89.8014 86° East 478 550 45,000  Level Minneapolis Center
Sat 02:43:22 PM 43.6422 -89.6175 87° East 479 551 45,000  Level Minneapolis Center
Sat 02:44:24 PM 43.6478 -89.4356 88° East 477 549 45,000  Level Minneapolis Center
Sat 02:45:26 PM 43.6531 -89.2533 88° East 475 547 45,000  Level Minneapolis Center
Sat 02:46:28 PM 43.6583 -89.0706 88° East 475 547 45,000  Level Minneapolis Center
Sat 02:47:30 PM 43.6644 -88.8558 88° East 477 549 45,000  Level Minneapolis Center
Sat 02:48:32 PM 43.6697 -88.6694 88° East 480 552 45,000  Level Minneapolis Center
Sat 02:49:34 PM 43.6750 -88.4811 88° East 483 556 45,000  Level Minneapolis Center
Sat 02:50:36 PM 43.6783 -88.2922 89° East 485 558 45,000  Level Minneapolis Center
Sat 02:51:38 PM 43.6819 -88.1064 88° East 482 555 45,000  Level Minneapolis Center
Sat 02:52:51 PM 43.6844 -87.9225 89° East 477 549 45,000  Level Minneapolis Center
Sat 02:53:57 PM 43.6897 -87.6764 88° East 480 552 45,000  Level Chicago Center
Sat 02:54:59 PM 43.6919 -87.4939 89° East 476 548 45,000  Level Chicago Center
Sat 02:56:01 PM 43.6942 -87.3172 89° East 478 550 45,000  Level Chicago Center
Sat 02:57:03 PM 43.6969 -87.1350 89° East 475 547 45,000  Level Chicago Center
Sat 02:58:05 PM 43.6992 -86.9508 89° East 478 550 45,000  Level Chicago Center
Sat 02:59:07 PM 43.7022 -86.7283 89° East 481 554 45,000  Level Chicago Center
Sat 03:00:18 PM 43.7028 -86.5075 90° East 480 552 45,000  Level Minneapolis Center
Sat 03:01:20 PM 43.7031 -86.3236 90° East 478 550 45,000  Level Minneapolis Center
Sat 03:02:12 PM 43.7044 -86.1758 89° East 479 551 45,000  Level Chicago Center
Sat 03:03:14 PM 43.7056 -85.9903 89° East 480 552 45,000  Level Chicago Center
Sat 03:04:16 PM 43.7050 -85.8056 90° East 479 551 45,000  Level Chicago Center
Sat 03:05:18 PM 43.7053 -85.6200 90° East 481 554 45,000  Level Chicago Center
Sat 03:06:29 PM 43.7050 -85.3967 90° East 480 552 45,000  Level Minneapolis Center
Sat 03:07:31 PM 43.7044 -85.2133 90° East 479 551 45,000  Level Minneapolis Center
Sat 03:08:32 PM 43.7028 -85.0283 91° East 480 552 45,000  Level Minneapolis Center
Sat 03:09:35 PM 43.7025 -84.8064 90° East 481 554 45,000  Level Minneapolis Center
Sat 03:10:36 PM 43.7003 -84.6225 91° East 480 552 45,000  Level Minneapolis Center
Sat 03:11:38 PM 43.6983 -84.4386 91° East 479 551 45,000  Level Minneapolis Center
Sat 03:12:40 PM 43.6967 -84.2544 91° East 481 554 45,000  Level Minneapolis Center
Sat 03:13:42 PM 43.6947 -84.0719 91° East 477 549 45,000  Level Minneapolis Center
Sat 03:14:44 PM 43.6914 -83.8886 91° East 478 550 45,000  Level Minneapolis Center
Sat 03:15:46 PM 43.6875 -83.6683 91° East 479 551 45,000  Level Minneapolis Center
Sat 03:16:47 PM 43.6853 -83.4839 91° East 480 552 45,000  Level Minneapolis Center
Sat 03:17:49 PM 43.6819 -83.3014 91° East 479 551 45,000  Level Minneapolis Center
Sat 03:18:51 PM 43.6769 -83.1172 92° East 480 552 45,000  Level Minneapolis Center
Sat 03:20:06 PM 43.6500 -82.8667 98° East 480 552 45,000  Level Toronto Center
Sat 03:20:54 PM 43.6672 -82.7492 79° East 482 555 45,000  Level Minneapolis Center
Sat 03:21:56 PM 43.6622 -82.5650 92° East 481 554 45,000  Level Minneapolis Center
Sat 03:22:58 PM 43.6567 -82.3447 92° East 481 554 45,000  Level Minneapolis Center
Sat 03:24:00 PM 43.6531 -82.1603 91° East 481 554 45,000  Level Minneapolis Center
Sat 03:25:06 PM 43.6167 -81.9333 102° East 480 552 45,000  Level Toronto Center
Sat 03:26:06 PM 43.6333 -81.7500 83° East 480 552 45,000  Level Toronto Center
Sat 03:27:06 PM 43.6167 -81.5667 97° East 480 552 45,000  Level Toronto Center
Sat 03:28:06 PM 43.6000 -81.3833 97° East 480 552 45,000  Level Toronto Center
Sat 03:29:06 PM 43.6000 -81.2000 90° East 480 552 45,000  Level Toronto Center
Sat 03:30:06 PM 43.5833 -81.0333 98° East 480 552 45,000  Level Toronto Center
Sat 03:31:06 PM 43.5833 -80.8333 90° East 480 552 45,000  Level Toronto Center
Sat 03:32:06 PM 43.5833 -80.6500 90° East 480 552 45,000  Level Toronto Center
Sat 03:33:06 PM 43.5833 -80.4667 90° East 480 552 45,000 -700 Level Toronto Center
Sat 03:34:06 PM 43.5667 -80.2833 97° East 480 552 43,600 -1,400 Descending Toronto Center
Sat 03:35:06 PM 43.5500 -80.1000 97° East 490 564 42,200 -1,350 Descending Toronto Center
Sat 03:36:06 PM 43.5500 -79.9167 90° East 480 552 40,900 -1,650 Descending Toronto Center
Sat 03:37:06 PM 43.5333 -79.7167 96° East 480 552 38,900 -2,050 Descending Toronto Center
Sat 03:38:06 PM 43.5333 -79.5667 90° East 470 541 36,800 -2,250 Descending Toronto Center
Sat 03:39:06 PM 43.5167 -79.3833 97° East 440 506 34,400 -2,300 Descending Toronto Center
Sat 03:40:06 PM 43.5000 -79.2000 97° East 440 506 32,200 -2,200 Descending Toronto Center
Sat 03:41:06 PM 43.5000 -79.0333 90° East 460 529 30,000 -2,050 Descending Toronto Center
Sat 03:42:06 PM 43.4833 -78.8500 97° East 480 552 28,100 -1,050 Descending Toronto Center
Sat 03:43:06 PM 43.4833 -78.6667 90° East 480 552 27,900 -850 Descending Toronto Center
Sat 03:44:06 PM 43.4500 -78.4833 104° East 480 552 26,400 -1,550 Descending Toronto Center
Sat 03:45:06 PM 43.4500 -78.3000 90° East 480 552 24,800 -1,473 Descending Toronto Center
Sat 03:45:56 PM 43.4542 -78.1725 87° East 475 547 23,700 -1,473 Descending Cleveland Center
Sat 03:46:56 PM 43.4400 -77.9958 96° East 475 547 22,100 -1,500 Descending Cleveland Center
Sat 03:47:56 PM 43.4278 -77.8247 96° East 457 526 20,700 -1,500 Descending Cleveland Center
Sat 03:48:56 PM 43.4153 -77.6594 96° East 445 512 19,100 -1,686 Descending Cleveland Center
Sat 03:49:57 PM 43.4047 -77.4942 95° East 440 506 17,300 -1,642 Descending Cleveland Center
Sat 03:52:06 PM 43.3667 -77.1333 98° East 410 472 13,900 -1,556 Descending Toronto Center
Sat 03:53:06 PM 43.3500 -76.9667 98° East 400 460 12,400 -1,450 Descending Toronto Center
Sat 03:54:06 PM 43.3500 -76.8167 90° East 390 449 11,000 -750 Descending Toronto Center
Sat 03:55:06 PM 43.3500 -76.7000 90° East 380 437 10,900 -50 Descending Toronto Center
Sat 03:56:06 PM 43.3167 -76.5333 105° East 380 437 10,900  Level Toronto Center
Sat 03:57:06 PM 43.3167 -76.4000 90° East 360 414 10,900 -686 Level Toronto Center
Sat 03:57:51 PM 43.3147 -76.3586 94° East 291 335 9,700 -1,771 Descending Boston Center
Sat 03:58:51 PM 43.3083 -76.2411 94° East 287 330 7,800 -1,339 Descending Boston Center
Sat 03:59:52 PM 43.2972 -76.1347 98° East 284 327 7,000 -393 Descending Boston Center
Sat 04:00:53 PM 43.2861 -76.0258 98° East 284 327 7,000  Level Boston Center
Sat 04:01:53 PM 43.2769 -75.9139 96° East 294 338 7,000 -446 Level Boston Center
Sat 04:02:54 PM 43.2700 -75.8022 95° East 293 337 6,100 -1,033 Descending Boston Center
Sat 04:03:55 PM 43.2583 -75.6961 99° East 292 336 4,900 -1,190 Descending Boston Center
Sat 04:04:55 PM 43.2236 -75.6058 118° Southeast 259 298 3,700 -793 Descending Boston Center
Sat 04:05:56 PM 43.1733 -75.5292 132° Southeast 261 300 3,300 -590 Descending Boston Center
Sat 04:06:57 PM 43.1756 -75.4469 88° East 222 255 2,500 -843 Descending Boston Center
Sat 04:07:57 PM 43.1897 -75.3878 72° East 139 160 1,600 -900 Descending Boston Center
Sat 04:09:00 PM 43.2333 -75.4000 346° North  Level FlightAware Approximate
Sat 04:16:00 PM 43.2338 -75.4070 346° North  Level Estimated
Sat 04:17:00 PM 43.2333 -75.4000 346° North  Level FlightAware Approximate
Sat 04:18:00 PM 43.2338 -75.4070 346° North  Level Estimated
Sat 04:19:00 PM 43.2333 -75.4000 346° North  Level FlightAware Approximate
Sat 04:20:00 PM 43.2338 -75.4070 346° North  Level Estimated
Sat 04:21:00 PM 43.2333 -75.4000 346° North  Level FlightAware Approximate
Sat 04:22:00 PM 43.2338 -75.4070 346° North  Level Estimated
Sat 04:23:00 PM 43.2333 -75.4000 346° North  Level FlightAware Approximate

Login

Don't have an account? Register now (free) for customized features, flight alerts, and more!